San Leandro, CA (94577)

5:26 PM PDT on April 25, 2015 (GMT -0700)
Davis Instruments | | Change Station
CLOSE
Current Station
Personal Weather Station
Location: Hayward, CA
Elevation: 36 ft
Nearby Weather Stations

Elev 36 ft 37.70 °N, 122.20 °W | Updated 5 minutes ago

Partly Cloudy
Partly Cloudy
65.0 °F
Feels Like 65.0 °F
N
2.0
Wind Variable Wind from WSW
Gusts 5.0 mph

Today
High -- | Low -- °F
--% Chance of Precip.
Yesterday
High -- | Low -- °F
Precip. -- in
6:20 AM 7:53 PM
Waxing Crescent, 50% visible
Pressure 29.99 in
Visibility 10.0 miles
Clouds Few 3000 ft
Scattered Clouds 20000 ft
Dew Point 47 °F
Humidity 54%
Rainfall 0.50 in
Snow Depth Not available.
UV 1.2 out of 12
Pollen 4.70 out of 12
Air Quality Not available.
Flu Activity Sporadic
METAR KOAK 252353Z 28014KT 10SM FEW030 SCT200 16/08 A2999 RMK AO2 SLP156 T01610078 10172 20128 53003 $

More Conditions Fewer Conditions

Pressure 29.99 in
Visibility 10.0 miles
Clouds Few 3000 ft
Scattered Clouds 20000 ft
Dew Point 47 °F
Humidity 54%
Rainfall 0.50 in
Snow Depth Not available.
UV 1.2 out of 12
Pollen 4.70 out of 12
Air Quality Not available.
Flu Activity Sporadic
METAR KOAK 252353Z 28014KT 10SM FEW030 SCT200 16/08 A2999 RMK AO2 SLP156 T01610078 10172 20128 53003 $

More Conditions Fewer Conditions

10-Day Weather Forecast

Almanac

Astronomy

Apr. 25, 2015 Rise Set
Actual Time
Civil Twilight
Nautical Twilight
Astronomical Twilight
Moon
Length of Visible Light
Length of Day
Tomorrow will be .
, % of the Moon is Illuminated

Today's Extremes

State Highs State Lows

Community

WunderPhotos

Upload Photos

1,816,856 photos uploaded!

WunderBlogs® & News

Nearby

Air Quality

  Air Quality AQ Index Pollutant
Not available.

Snow Depth

Station Depth Elevation

Earthquake Activity

City Distance Mag. Time & Date
Minimum magnitude displayed is 2.5.

Coastal Water Temperatures

Place Temperature

Stations

Nearby Weather Stations

Station Location Temp. Windchill Dew Point Humidity Wind Precip. Elev Updated Type